Aeroporto :
LOGIN :

Iscrizione | Disclaimer

   EN    FR    IT 

 










Sommario :    VFR   VFR Marginale   IFR   IFR Intensivo   IFR Molto Intensivo
Visibilità : 
Base nubi : 
>= 8 km
>= 3000ft
5 / 8 km
1000 / 3000 ft
1500m / 5 km
500 / 1000 ft
800 / 1500m
200 / 500 ft
< 800m
< 200 ft
Simboli :   Temporali  Nebbia  Neve Forte  Precipitazioni Forti  Vento > 20 kt
SIGMETs :   Varie  Temporali  Ghiacco  Turbolenza  Onda orograficha  Ceneri Vulcaniche






- Altitudine del aeroporto : 885 ft
- Codice IATA : BAS


LFSB - Bale-Mulhouse

ULTIMO METAR :
  • 231000Z 21005KT 170V230 9999 BKN040 SCT058 BKN120 12/01 Q1027 NOSIG

METARs OBSOLETI :
  • 230930Z 27009KT 9999 BKN040 SCT058 BKN120 12/01 Q1027 NOSIG
  • 230900Z 29006KT 9999 BKN040 SCT048 BKN100 10/03 Q1028 NOSIG
  • 230830Z 36004KT 330V030 9999 BKN040 SCT048 BKN100 11/02 Q1028 NOSIG
  • 230800Z VRB02KT 9999 BKN040 SCT048 BKN100 08/03 Q1028 NOSIG
  • 230730Z 33003KT 9999 BKN040 SCT048 BKN100 08/04 Q1028 NOSIG

TAF TAF LFSB
Valido dal 23 a 06 ore il 24 a 06 ore UTC


230500Z 2306/2406 26010KT 9999 SCT050
PROB40
TEMPO 2312/2317 26015G25KT
Met : +33 3 89 90 31 11



MetMap, La meteo Aeronautica in un colpo d'occhio ! - Copyright ORBIFLY Dicembre 2007 - Disclaimer

ORBIFLY MET'MAP TEAM :

Programmazione e sviluppo : Alexandra Zaïnal
Concezione : Baudouin d'Aumeries
Aiuto per la programmazione : Marc-Olivier Méhu
Supporto tecnico e logistico : Manuel Goepfert
Aiuto per la traduzione : Arnaldo La Scala

Contatto : metmap@orbifly.com




FONTI E CREDITI :

   NOAA